Time;durP1;ratioP1;P1;durP2;ratioP2;P2;SDS_P1;SDS_P2;PMS_P1;PMS_P2;Temp;Humidity;BMP_temperature;BMP_pressure;BME280_temperature;BME280_humidity;BME280_pressure;Samples;Min_cycle;Max_cycle;Signal;HPM_P1;HPM_P2
2023/09/08 00:00:48;;;;;;;7.60;6.40;;;18.60;94.70;;;;;;5033920;28;20437;-60
2023/09/08 00:03:15;;;;;;;9.00;6.63;;;18.60;95.00;;;;;;5033698;28;20433;-58
2023/09/08 00:05:42;;;;;;;6.73;5.90;;;18.50;95.20;;;;;;5033855;28;20441;-59
2023/09/08 00:08:09;;;;;;;7.73;6.10;;;18.50;95.60;;;;;;5033825;28;20457;-58
2023/09/08 00:10:37;;;;;;;11.53;6.80;;;18.50;95.90;;;;;;5033453;28;20440;-59
2023/09/08 00:13:04;;;;;;;6.97;6.27;;;18.40;96.00;;;;;;5033650;28;20805;-59
2023/09/08 00:15:31;;;;;;;7.40;6.13;;;18.40;96.40;;;;;;5033793;28;20448;-59
2023/09/08 00:17:57;;;;;;;7.90;6.20;;;18.30;96.60;;;;;;5033091;28;20488;-59
2023/09/08 00:20:24;;;;;;;8.40;6.27;;;18.30;96.90;;;;;;5033386;28;20440;-58
2023/09/08 00:22:51;;;;;;;7.43;6.47;;;18.20;97.30;;;;;;5033413;28;20441;-59
2023/09/08 00:25:18;;;;;;;6.23;5.60;;;18.20;97.50;;;;;;5033293;28;20445;-58
2023/09/08 00:27:46;;;;;;;6.90;6.30;;;18.10;97.80;;;;;;5035118;28;20461;-58
2023/09/08 00:30:13;;;;;;;9.33;7.13;;;18.10;98.10;;;;;;5037387;28;20445;-58
2023/09/08 00:32:40;;;;;;;7.53;6.80;;;18.00;98.40;;;;;;5037604;28;20449;-58
2023/09/08 00:35:07;;;;;;;7.83;5.57;;;18.00;98.70;;;;;;5037017;28;20444;-58
2023/09/08 00:37:34;;;;;;;6.20;5.60;;;17.90;99.10;;;;;;5037350;28;20492;-59
2023/09/08 00:40:01;;;;;;;8.37;6.47;;;17.90;99.40;;;;;;5037115;28;20949;-58
2023/09/08 00:42:28;;;;;;;6.77;6.00;;;17.80;99.60;;;;;;5037157;28;20448;-59
2023/09/08 00:44:56;;;;;;;9.50;6.50;;;17.80;99.90;;;;;;5037655;28;20443;-58
2023/09/08 00:47:22;;;;;;;7.67;6.60;;;17.70;99.90;;;;;;5037489;28;20437;-59
2023/09/08 00:49:51;;;;;;;6.27;5.63;;;17.70;99.90;;;;;;5036811;28;20460;-58
2023/09/08 00:52:17;;;;;;;7.23;6.63;;;17.70;99.90;;;;;;5037346;28;20445;-60
2023/09/08 00:54:44;;;;;;;6.97;6.30;;;17.60;99.90;;;;;;5037246;28;20443;-58
2023/09/08 00:57:11;;;;;;;8.73;6.30;;;17.60;99.90;;;;;;5036633;28;20844;-58
2023/09/08 00:59:38;;;;;;;6.77;5.60;;;17.60;99.90;;;;;;5036731;28;20461;-59
2023/09/08 01:02:06;;;;;;;7.00;5.50;;;17.50;99.90;;;;;;5036469;28;20441;-60
2023/09/08 01:04:34;;;;;;;7.33;6.17;;;17.60;99.90;;;;;;5036560;28;20451;-58
2023/09/08 01:07:01;;;;;;;7.83;6.80;;;17.60;99.90;;;;;;5036428;28;20789;-58
2023/09/08 01:09:28;;;;;;;7.10;6.30;;;17.60;99.90;;;;;;5036558;28;20460;-58
2023/09/08 01:12:00;;;;;;;7.67;6.87;;;17.50;99.90;;;;;;5036464;28;20448;-59
2023/09/08 01:14:28;;;;;;;7.73;6.83;;;17.50;99.90;;;;;;5036281;28;20428;-58
2023/09/08 01:16:54;;;;;;;8.70;6.83;;;17.50;99.90;;;;;;5036196;28;20485;-59
2023/09/08 01:19:23;;;;;;;6.87;6.27;;;17.50;99.90;;;;;;5035999;28;20471;-59
2023/09/08 01:22:18;;;;;;;7.57;6.33;;;17.40;99.90;;;;;;5036284;28;20444;-58
2023/09/08 01:25:13;;;;;;;7.73;6.93;;;17.40;99.90;;;;;;5036192;28;20421;-58
2023/09/08 01:27:46;;;;;;;8.00;6.33;;;17.30;99.90;;;;;;5036396;28;20456;-58
2023/09/08 01:30:14;;;;;;;7.87;6.90;;;17.30;99.90;;;;;;5036499;28;20425;-59
2023/09/08 01:32:42;;;;;;;7.67;6.77;;;17.20;99.90;;;;;;5036179;28;20437;-58
2023/09/08 01:35:10;;;;;;;7.80;7.10;;;17.20;99.90;;;;;;5036173;28;20448;-59
2023/09/08 01:37:36;;;;;;;7.50;6.80;;;17.20;99.90;;;;;;5035765;28;21016;-59
2023/09/08 01:40:06;;;;;;;9.63;7.80;;;17.10;99.90;;;;;;5034980;28;20972;-58
2023/09/08 01:42:32;;;;;;;8.43;6.60;;;17.10;99.90;;;;;;5035887;28;20444;-59
2023/09/08 01:44:59;;;;;;;7.73;6.93;;;17.10;99.90;;;;;;5035962;28;20441;-58
2023/09/08 01:47:26;;;;;;;7.83;6.80;;;17.00;99.90;;;;;;5035740;28;20520;-59
2023/09/08 01:49:53;;;;;;;10.43;7.43;;;17.00;99.90;;;;;;5035549;28;20445;-59
2023/09/08 01:52:20;;;;;;;8.53;6.83;;;17.00;99.90;;;;;;5035592;28;20440;-58
2023/09/08 01:54:46;;;;;;;7.63;6.93;;;17.00;99.90;;;;;;5035726;28;20445;-58
2023/09/08 01:57:14;;;;;;;8.10;6.97;;;17.00;99.90;;;;;;5035653;28;20472;-58
2023/09/08 01:59:41;;;;;;;13.07;7.67;;;17.00;99.90;;;;;;5035426;28;20786;-59
2023/09/08 02:02:08;;;;;;;9.07;7.33;;;17.00;99.90;;;;;;5035826;28;20441;-59
2023/09/08 02:04:35;;;;;;;10.33;7.37;;;17.00;99.90;;;;;;5035704;28;20440;-59
2023/09/08 02:07:03;;;;;;;9.70;7.83;;;16.90;99.90;;;;;;5035535;28;20441;-59
2023/09/08 02:09:34;;;;;;;9.30;6.70;;;16.90;99.90;;;;;;5034901;28;20465;-60
2023/09/08 02:12:01;;;;;;;10.97;7.47;;;16.90;99.90;;;;;;5035473;28;20448;-58
2023/09/08 02:14:29;;;;;;;8.20;7.40;;;16.90;99.90;;;;;;5035466;28;20814;-58
2023/09/08 02:16:56;;;;;;;7.23;6.53;;;16.90;99.90;;;;;;5035367;28;20780;-58
2023/09/08 02:19:23;;;;;;;9.50;7.93;;;16.90;99.90;;;;;;5035277;28;20476;-58
2023/09/08 02:21:49;;;;;;;8.30;7.50;;;16.90;99.90;;;;;;5035524;28;20445;-59
2023/09/08 02:24:16;;;;;;;10.20;7.47;;;16.90;99.90;;;;;;5035102;28;20440;-58
2023/09/08 02:26:43;;;;;;;9.03;8.13;;;16.80;99.90;;;;;;5034697;28;20445;-59
2023/09/08 02:29:10;;;;;;;8.80;8.00;;;16.80;99.90;;;;;;5034826;28;20468;-58
2023/09/08 02:31:39;;;;;;;8.80;7.87;;;16.80;99.90;;;;;;5035072;28;20445;-59
2023/09/08 02:34:05;;;;;;;8.40;7.13;;;16.70;99.90;;;;;;5034903;28;20445;-59
2023/09/08 02:36:32;;;;;;;11.30;8.30;;;16.70;99.90;;;;;;5034976;28;20432;-58
2023/09/08 02:38:59;;;;;;;9.40;8.47;;;16.70;99.90;;;;;;5034424;28;21031;-58
2023/09/08 02:41:25;;;;;;;13.20;8.37;;;16.70;99.90;;;;;;5034611;28;20448;-59
2023/09/08 02:43:52;;;;;;;10.27;7.63;;;16.60;99.90;;;;;;5034957;28;20441;-59
2023/09/08 02:46:19;;;;;;;9.23;7.83;;;16.60;99.90;;;;;;5034915;28;20441;-58
2023/09/08 02:48:47;;;;;;;9.23;8.10;;;16.50;99.90;;;;;;5034462;28;20463;-60
2023/09/08 02:51:14;;;;;;;9.80;8.30;;;16.50;99.90;;;;;;5033591;28;20425;-58
2023/09/08 02:53:40;;;;;;;14.57;8.40;;;16.50;99.90;;;;;;5034846;28;20437;-59
2023/09/08 02:56:09;;;;;;;9.87;8.60;;;16.50;99.90;;;;;;5034411;28;20447;-59
2023/09/08 02:58:36;;;;;;;10.57;8.90;;;16.40;99.90;;;;;;5034755;28;20498;-59
2023/09/08 03:01:11;;;;;;;10.40;8.27;;;16.40;99.90;;;;;;5034322;28;20441;-60
2023/09/08 03:03:38;;;;;;;11.10;8.23;;;16.30;99.90;;;;;;5034364;28;20519;-58
2023/09/08 03:06:06;;;;;;;11.20;8.63;;;16.30;99.90;;;;;;5034312;28;20437;-58
2023/09/08 03:08:33;;;;;;;10.13;9.00;;;16.30;99.90;;;;;;5034068;28;20457;-56
2023/09/08 03:11:00;;;;;;;12.40;8.93;;;16.30;99.90;;;;;;5033881;28;20445;-59
2023/09/08 03:13:28;;;;;;;9.30;8.03;;;16.30;99.90;;;;;;5034345;28;20467;-58
2023/09/08 03:15:55;;;;;;;12.47;8.20;;;16.30;99.90;;;;;;5033910;28;20445;-58
2023/09/08 03:18:22;;;;;;;10.13;9.00;;;16.20;99.90;;;;;;5034383;28;20489;-58
2023/09/08 03:20:50;;;;;;;9.27;8.37;;;16.20;99.90;;;;;;5034233;28;20445;-59
2023/09/08 03:23:18;;;;;;;9.70;8.67;;;16.20;99.90;;;;;;5034124;28;20857;-58
2023/09/08 03:25:45;;;;;;;11.70;8.50;;;16.20;99.90;;;;;;5034250;28;20533;-60
2023/09/08 03:28:12;;;;;;;10.47;9.37;;;16.20;99.90;;;;;;5034448;28;20966;-59
2023/09/08 03:30:39;;;;;;;11.70;9.20;;;16.10;99.90;;;;;;5036235;28;20441;-58
2023/09/08 03:33:05;;;;;;;14.37;9.60;;;16.10;99.90;;;;;;5037088;28;20934;-58
2023/09/08 03:35:32;;;;;;;10.57;9.50;;;16.10;99.90;;;;;;5034080;28;20437;-58
2023/09/08 03:37:59;;;;;;;11.13;9.47;;;16.00;99.90;;;;;;5036974;28;20495;-58
2023/09/08 03:40:27;;;;;;;12.80;8.70;;;16.00;99.90;;;;;;5036106;28;20445;-58
2023/09/08 03:42:54;;;;;;;14.30;10.23;;;16.00;99.90;;;;;;5035173;28;20448;-57
2023/09/08 03:45:20;;;;;;;11.70;9.03;;;16.00;99.90;;;;;;5035522;28;20466;-59
2023/09/08 03:47:47;;;;;;;14.23;9.20;;;15.90;99.90;;;;;;5034988;28;20453;-58
2023/09/08 03:50:14;;;;;;;10.40;9.20;;;15.90;99.90;;;;;;5035670;28;20459;-57
2023/09/08 03:52:41;;;;;;;12.03;9.17;;;15.90;99.90;;;;;;5035933;28;20531;-58
2023/09/08 03:55:08;;;;;;;9.33;8.03;;;15.90;99.90;;;;;;5034679;28;20441;-59
2023/09/08 03:57:36;;;;;;;12.10;9.87;;;15.90;99.90;;;;;;5034159;28;20489;-59
2023/09/08 04:00:04;;;;;;;13.20;10.00;;;15.90;99.90;;;;;;5033732;28;20445;-58
2023/09/08 04:02:31;;;;;;;12.20;10.23;;;15.80;99.90;;;;;;5033483;28;20437;-58
2023/09/08 04:04:58;;;;;;;12.80;10.77;;;15.80;99.90;;;;;;5033375;28;20996;-58
2023/09/08 04:07:25;;;;;;;11.20;9.63;;;15.80;99.90;;;;;;5033360;28;20452;-60
2023/09/08 04:12:10;;;;;;;11.10;10.00;;;15.80;99.90;;;;;;5113637;27;1229226;-60
2023/09/08 04:14:37;;;;;;;14.23;10.87;;;15.80;99.90;;;;;;5132944;28;20298;-59
2023/09/08 04:17:04;;;;;;;15.27;10.40;;;15.70;99.90;;;;;;5133069;28;20444;-59
2023/09/08 04:19:31;;;;;;;13.43;9.70;;;15.70;99.90;;;;;;5132868;28;20482;-58
2023/09/08 04:21:58;;;;;;;11.30;10.10;;;15.70;99.90;;;;;;5132611;28;20429;-59
2023/09/08 04:24:24;;;;;;;17.53;11.80;;;15.70;99.90;;;;;;5132659;28;20444;-59
2023/09/08 04:26:51;;;;;;;15.47;10.80;;;15.60;99.90;;;;;;5133195;28;20805;-60
2023/09/08 04:29:19;;;;;;;15.27;10.57;;;15.60;99.90;;;;;;5132474;28;20464;-61
2023/09/08 04:31:46;;;;;;;11.77;10.47;;;15.60;99.90;;;;;;5132739;28;20472;-60
2023/09/08 04:34:13;;;;;;;11.80;10.27;;;15.60;99.90;;;;;;5133199;28;20432;-60
2023/09/08 04:36:39;;;;;;;13.43;11.17;;;15.60;99.90;;;;;;5133241;28;20439;-60
2023/09/08 04:39:08;;;;;;;13.53;10.87;;;15.60;99.90;;;;;;5132181;28;20456;-60
2023/09/08 04:41:35;;;;;;;11.13;9.47;;;15.60;99.90;;;;;;5132281;28;20441;-59
2023/09/08 04:44:02;;;;;;;11.43;10.20;;;15.60;99.90;;;;;;5132510;28;20436;-59
2023/09/08 04:46:30;;;;;;;12.30;10.53;;;15.60;99.90;;;;;;5131758;28;20429;-60
2023/09/08 04:48:56;;;;;;;14.07;10.37;;;15.50;99.90;;;;;;5131929;28;20467;-60
2023/09/08 04:51:23;;;;;;;12.67;10.17;;;15.50;99.90;;;;;;5132000;28;20480;-60
2023/09/08 04:53:50;;;;;;;11.00;9.90;;;15.60;99.90;;;;;;5132022;28;20440;-60
2023/09/08 04:56:17;;;;;;;12.10;10.03;;;15.60;99.90;;;;;;5132395;28;20436;-57
2023/09/08 04:58:43;;;;;;;10.87;8.73;;;15.60;99.90;;;;;;5131718;28;20799;-60
2023/09/08 05:01:10;;;;;;;13.73;11.07;;;15.60;99.90;;;;;;5131543;28;20436;-59
2023/09/08 05:03:38;;;;;;;13.27;9.93;;;15.60;99.90;;;;;;5131698;28;20451;-59
2023/09/08 05:06:05;;;;;;;12.03;9.90;;;15.60;99.90;;;;;;5131187;28;20926;-59
2023/09/08 05:08:32;;;;;;;11.10;9.47;;;15.70;99.90;;;;;;5131725;28;20456;-59
2023/09/08 05:10:59;;;;;;;11.37;9.90;;;15.80;99.90;;;;;;5131402;28;20483;-59
2023/09/08 05:13:26;;;;;;;13.23;9.93;;;15.90;99.90;;;;;;5131678;28;20437;-60
2023/09/08 05:15:59;;;;;;;12.67;9.40;;;16.00;99.90;;;;;;5131436;28;20445;-60
2023/09/08 05:18:26;;;;;;;12.70;9.00;;;16.00;99.90;;;;;;5119626;22;20502;-59
2023/09/08 05:20:54;;;;;;;10.90;9.33;;;16.10;99.90;;;;;;5069461;28;20436;-58
2023/09/08 05:23:21;;;;;;;12.23;8.50;;;16.20;99.90;;;;;;5056096;28;20955;-58
2023/09/08 05:25:48;;;;;;;10.33;9.20;;;16.20;99.90;;;;;;5055348;28;20443;-58
2023/09/08 05:28:15;;;;;;;10.33;9.03;;;16.20;99.90;;;;;;5063854;28;20825;-57
2023/09/08 05:30:41;;;;;;;15.53;9.63;;;16.20;99.90;;;;;;5075171;28;20479;-57
2023/09/08 05:33:08;;;;;;;11.57;10.47;;;16.30;99.90;;;;;;5076189;28;20531;-57
2023/09/08 05:35:36;;;;;;;10.93;9.57;;;16.30;99.90;;;;;;5075234;28;20447;-56
2023/09/08 05:38:05;;;;;;;13.07;10.20;;;16.40;99.90;;;;;;5075081;28;20525;-57
2023/09/08 05:40:31;;;;;;;13.70;9.27;;;16.40;99.90;;;;;;5075203;28;20496;-56
2023/09/08 05:42:58;;;;;;;10.67;8.83;;;16.50;99.90;;;;;;5074995;28;20439;-56
2023/09/08 05:45:25;;;;;;;12.67;9.37;;;16.60;99.90;;;;;;5075280;28;20435;-57
2023/09/08 05:47:52;;;;;;;11.40;9.43;;;16.60;99.90;;;;;;5075024;28;20463;-57
2023/09/08 05:50:19;;;;;;;11.47;9.43;;;16.70;99.90;;;;;;5075418;28;20442;-57
2023/09/08 05:52:46;;;;;;;11.47;9.97;;;16.80;99.90;;;;;;5075191;28;20435;-57
2023/09/08 05:55:14;;;;;;;12.33;8.97;;;16.90;99.90;;;;;;5075231;28;20816;-58
2023/09/08 05:57:40;;;;;;;12.50;9.43;;;16.90;99.90;;;;;;5075969;28;20455;-58
2023/09/08 06:00:08;;;;;;;10.70;9.60;;;17.00;99.90;;;;;;5075401;28;20446;-58
2023/09/08 06:02:35;;;;;;;9.70;8.70;;;17.10;99.90;;;;;;5074743;28;20431;-58
2023/09/08 06:05:02;;;;;;;10.03;8.70;;;17.20;99.90;;;;;;5075121;28;20435;-58
2023/09/08 06:07:28;;;;;;;10.47;9.30;;;17.30;99.90;;;;;;5075049;28;20445;-58
2023/09/08 06:09:56;;;;;;;11.43;9.40;;;17.40;99.90;;;;;;5075241;28;20443;-59
2023/09/08 06:12:24;;;;;;;13.80;8.77;;;17.50;99.90;;;;;;5075623;28;20835;-58
2023/09/08 06:14:51;;;;;;;11.60;8.53;;;17.50;99.90;;;;;;5075060;28;20470;-59
2023/09/08 06:17:17;;;;;;;9.43;8.10;;;17.70;99.90;;;;;;5074507;28;20447;-59
2023/09/08 06:19:44;;;;;;;11.90;8.93;;;17.70;99.90;;;;;;5074716;28;20455;-58
2023/09/08 06:22:11;;;;;;;12.97;8.73;;;17.80;99.90;;;;;;5074857;28;20809;-58
2023/09/08 06:24:37;;;;;;;16.70;8.70;;;17.90;99.90;;;;;;5075159;28;20446;-58
2023/09/08 06:27:05;;;;;;;9.50;8.40;;;18.00;99.90;;;;;;5075017;28;20448;-57
2023/09/08 06:29:33;;;;;;;10.83;8.87;;;18.10;99.90;;;;;;5075549;28;20459;-59
2023/09/08 06:31:59;;;;;;;14.93;8.73;;;18.20;99.90;;;;;;5075991;28;20490;-59
2023/09/08 06:34:26;;;;;;;11.43;8.40;;;18.20;99.90;;;;;;5074540;28;20439;-58
2023/09/08 06:36:53;;;;;;;11.10;8.60;;;18.30;99.90;;;;;;5075265;28;20439;-58
2023/09/08 06:39:19;;;;;;;11.30;8.43;;;18.40;99.90;;;;;;5074295;28;20466;-58
2023/09/08 06:41:46;;;;;;;13.60;8.43;;;18.50;99.90;;;;;;5074734;28;20439;-58
2023/09/08 06:44:13;;;;;;;10.00;8.57;;;18.60;99.90;;;;;;5074680;28;20439;-58
2023/09/08 06:46:41;;;;;;;8.07;7.23;;;18.70;99.90;;;;;;5075739;28;20442;-57
2023/09/08 06:49:08;;;;;;;12.40;8.70;;;18.80;99.90;;;;;;5075787;28;20467;-58
2023/09/08 06:51:34;;;;;;;13.33;8.20;;;18.90;99.90;;;;;;5076955;28;20475;-58
2023/09/08 06:54:01;;;;;;;11.37;9.40;;;19.00;99.90;;;;;;5077268;28;20435;-58
2023/09/08 06:56:28;;;;;;;10.40;7.97;;;19.00;99.90;;;;;;5077265;28;20443;-58
2023/09/08 06:58:55;;;;;;;10.17;7.67;;;19.10;99.90;;;;;;5076540;28;20470;-59
2023/09/08 07:01:21;;;;;;;11.37;8.20;;;19.20;99.90;;;;;;5076505;28;20439;-59
2023/09/08 07:03:49;;;;;;;11.33;8.50;;;19.30;99.90;;;;;;5074948;28;20467;-59
2023/09/08 07:06:17;;;;;;;9.17;7.50;;;19.50;99.90;;;;;;5074658;28;20445;-61
2023/09/08 07:08:43;;;;;;;11.23;8.03;;;19.50;99.90;;;;;;5073347;28;20846;-59
2023/09/08 07:11:10;;;;;;;10.63;9.53;;;19.60;99.90;;;;;;5073729;28;20478;-59
2023/09/08 07:13:37;;;;;;;9.90;7.73;;;19.70;99.90;;;;;;5073692;28;20446;-58
2023/09/08 07:16:05;;;;;;;10.10;7.50;;;19.80;99.90;;;;;;5073728;28;20447;-58
2023/09/08 07:18:34;;;;;;;12.00;7.97;;;20.00;99.90;;;;;;5073527;28;20470;-58
2023/09/08 07:21:02;;;;;;;9.70;7.40;;;20.10;99.50;;;;;;5073706;28;20439;-58
2023/09/08 07:23:29;;;;;;;8.93;8.03;;;20.20;99.10;;;;;;5073432;28;20446;-59
2023/09/08 07:25:56;;;;;;;12.13;10.30;;;20.30;98.60;;;;;;5073040;28;20998;-57
2023/09/08 07:28:23;;;;;;;7.90;7.10;;;20.40;98.10;;;;;;5073338;28;20609;-59
2023/09/08 07:30:49;;;;;;;10.73;9.60;;;20.50;97.60;;;;;;5074005;28;20495;-58
2023/09/08 07:33:16;;;;;;;12.07;7.00;;;20.60;97.20;;;;;;5073267;28;20439;-58
2023/09/08 07:35:43;;;;;;;10.93;7.07;;;20.70;96.70;;;;;;5073475;28;20447;-57
2023/09/08 07:38:11;;;;;;;7.60;6.90;;;20.80;96.20;;;;;;5073284;28;20466;-58
2023/09/08 07:40:38;;;;;;;7.50;6.60;;;20.90;95.70;;;;;;5073500;28;20442;-58
2023/09/08 07:43:05;;;;;;;8.27;6.77;;;21.00;95.20;;;;;;5073684;28;20439;-58
2023/09/08 07:45:32;;;;;;;9.43;7.20;;;21.10;94.70;;;;;;5073017;28;20952;-59
2023/09/08 07:47:58;;;;;;;7.43;6.10;;;21.30;94.30;;;;;;5073859;28;20459;-58
2023/09/08 07:50:27;;;;;;;7.47;6.37;;;21.30;93.70;;;;;;5073584;28;20450;-59
2023/09/08 07:52:55;;;;;;;6.40;5.80;;;21.40;93.20;;;;;;5072802;28;20510;-60
2023/09/08 07:55:27;;;;;;;7.20;6.50;;;21.50;92.80;;;;;;5072720;28;20435;-59
2023/09/08 07:57:54;;;;;;;7.70;6.87;;;21.70;92.40;;;;;;5073148;28;20964;-58
2023/09/08 08:00:21;;;;;;;9.00;6.80;;;21.80;91.90;;;;;;5073000;28;20453;-59
2023/09/08 08:02:49;;;;;;;6.63;6.03;;;21.90;91.40;;;;;;5073185;28;20955;-58
2023/09/08 08:05:16;;;;;;;9.27;6.73;;;22.00;90.90;;;;;;5073778;28;20442;-59
2023/09/08 08:07:44;;;;;;;10.70;6.70;;;22.10;90.40;;;;;;5073564;28;20467;-59
2023/09/08 08:10:12;;;;;;;6.90;6.10;;;22.20;90.00;;;;;;5073686;28;20826;-59
2023/09/08 08:12:41;;;;;;;6.63;6.10;;;22.30;88.90;;;;;;5072673;28;20478;-59
2023/09/08 08:15:10;;;;;;;7.20;6.30;;;22.50;87.90;;;;;;5073572;28;20435;-59
2023/09/08 08:17:37;;;;;;;7.70;6.67;;;22.50;86.60;;;;;;5073168;28;20479;-59
2023/09/08 08:20:06;;;;;;;7.33;6.63;;;22.70;85.80;;;;;;5073812;28;20510;-59
2023/09/08 08:22:33;;;;;;;7.80;6.90;;;22.70;84.80;;;;;;5073153;28;20447;-61
2023/09/08 08:25:00;;;;;;;8.30;6.03;;;22.90;84.10;;;;;;5072820;28;20940;-61
2023/09/08 08:27:27;;;;;;;7.07;6.37;;;23.00;83.20;;;;;;5072505;28;20931;-60
2023/09/08 08:29:57;;;;;;;7.23;6.53;;;23.10;82.30;;;;;;5072742;28;20447;-61
2023/09/08 08:32:24;;;;;;;7.10;6.40;;;23.30;81.60;;;;;;5072551;28;20478;-60
2023/09/08 08:34:51;;;;;;;7.77;7.07;;;23.40;80.70;;;;;;5072772;28;20442;-60
2023/09/08 08:37:18;;;;;;;7.17;5.87;;;23.50;79.80;;;;;;5072919;28;20439;-61
2023/09/08 08:39:45;;;;;;;7.10;5.53;;;23.70;79.00;;;;;;5072697;28;20447;-61
2023/09/08 08:42:12;;;;;;;8.43;6.30;;;23.80;77.70;;;;;;5072643;28;20445;-61
2023/09/08 08:44:39;;;;;;;6.30;5.70;;;23.90;76.50;;;;;;5072423;28;20446;-61
2023/09/08 08:47:08;;;;;;;5.63;5.00;;;24.10;75.50;;;;;;5072733;28;20438;-61
2023/09/08 08:49:36;;;;;;;10.43;6.90;;;24.20;74.20;;;;;;5072549;28;20485;-61
2023/09/08 08:52:07;;;;;;;6.37;5.73;;;24.30;72.70;;;;;;5072402;28;20864;-60
2023/09/08 08:54:35;;;;;;;6.60;5.57;;;24.30;71.80;;;;;;5073053;28;20427;-61
2023/09/08 08:57:03;;;;;;;8.43;6.03;;;24.40;70.90;;;;;;5074208;28;20466;-61
2023/09/08 08:59:30;;;;;;;6.13;5.53;;;24.50;70.10;;;;;;5077592;28;20470;-60
2023/09/08 09:01:58;;;;;;;7.93;6.90;;;24.60;69.40;;;;;;5076472;28;20924;-59
2023/09/08 09:04:27;;;;;;;6.60;5.70;;;24.70;68.70;;;;;;5076826;28;20442;-60
2023/09/08 09:06:54;;;;;;;8.90;6.20;;;24.80;67.90;;;;;;5076327;28;20446;-59
2023/09/08 09:09:21;;;;;;;6.90;5.50;;;24.90;67.10;;;;;;5076339;28;20533;-59
2023/09/08 09:11:48;;;;;;;8.13;5.33;;;24.90;66.30;;;;;;5076096;28;20574;-59
2023/09/08 09:14:14;;;;;;;5.60;5.00;;;25.00;65.70;;;;;;5075599;28;20439;-60
2023/09/08 09:16:42;;;;;;;6.00;5.10;;;25.10;65.20;;;;;;5076163;28;20443;-60
2023/09/08 09:19:09;;;;;;;7.20;6.40;;;25.20;64.80;;;;;;5076227;28;20470;-61
2023/09/08 09:21:47;;;;;;;6.20;5.60;;;25.30;64.50;;;;;;5076493;28;20449;-61
2023/09/08 09:24:18;;;;;;;5.93;5.33;;;25.40;64.00;;;;;;5075941;28;20453;-62
2023/09/08 09:26:45;;;;;;;6.30;5.70;;;25.50;63.50;;;;;;5076215;28;20443;-61
2023/09/08 09:29:15;;;;;;;7.30;5.67;;;25.70;63.10;;;;;;5077017;28;20470;-60
2023/09/08 09:31:52;;;;;;;8.23;6.30;;;25.80;62.50;;;;;;5078404;28;20937;-60
2023/09/08 09:34:20;;;;;;;7.60;6.30;;;25.90;61.90;;;;;;5078882;28;20419;-61
2023/09/08 09:36:49;;;;;;;6.07;5.47;;;25.90;61.50;;;;;;5077965;28;20447;-61
2023/09/08 09:39:18;;;;;;;11.07;5.30;;;26.00;60.90;;;;;;5077678;28;20467;-60
2023/09/08 09:41:46;;;;;;;6.70;5.60;;;26.10;60.50;;;;;;5078938;28;20496;-59
2023/09/08 09:44:12;;;;;;;5.77;5.17;;;26.10;60.20;;;;;;5077349;28;20449;-59
2023/09/08 09:46:40;;;;;;;5.97;5.40;;;26.20;60.00;;;;;;5075715;28;20445;-60
2023/09/08 09:49:07;;;;;;;9.23;5.40;;;26.30;59.80;;;;;;5074997;28;20474;-59
2023/09/08 09:51:40;;;;;;;8.93;5.97;;;26.40;59.50;;;;;;5075579;28;20440;-60
2023/09/08 09:54:08;;;;;;;12.60;5.90;;;26.40;59.30;;;;;;5075548;28;20486;-61
2023/09/08 09:56:37;;;;;;;7.10;5.57;;;26.50;59.20;;;;;;5075331;28;20530;-60
2023/09/08 09:59:05;;;;;;;8.13;6.40;;;26.60;59.10;;;;;;5074945;28;20459;-61
2023/09/08 10:01:33;;;;;;;12.33;6.07;;;26.70;59.10;;;;;;5075389;28;20452;-61
2023/09/08 10:04:01;;;;;;;7.07;5.33;;;26.70;59.10;;;;;;5075380;28;20455;-61
2023/09/08 10:06:28;;;;;;;6.70;6.00;;;26.80;59.20;;;;;;5075204;28;20443;-59
2023/09/08 10:08:56;;;;;;;6.33;5.00;;;26.90;59.20;;;;;;5075105;28;20799;-60
2023/09/08 10:11:28;;;;;;;5.70;5.20;;;27.00;58.90;;;;;;5075116;28;20443;-60
2023/09/08 10:13:59;;;;;;;6.20;5.60;;;27.00;58.20;;;;;;5075026;28;20466;-60
2023/09/08 10:16:28;;;;;;;6.60;5.83;;;27.10;57.70;;;;;;5074747;28;20795;-60
2023/09/08 10:18:58;;;;;;;5.57;5.00;;;27.20;57.20;;;;;;5074481;28;20466;-60
2023/09/08 10:21:28;;;;;;;5.53;4.90;;;27.20;57.20;;;;;;5075216;28;20439;-60
2023/09/08 10:24:04;;;;;;;9.20;5.40;;;27.30;57.10;;;;;;5075024;28;20505;-59
2023/09/08 10:26:34;;;;;;;5.67;5.07;;;27.40;56.70;;;;;;5075596;28;20521;-62
2023/09/08 10:29:02;;;;;;;7.07;4.50;;;27.50;56.20;;;;;;5074726;28;20549;-60
2023/09/08 10:31:30;;;;;;;5.53;4.77;;;27.60;55.70;;;;;;5075012;28;20443;-61
2023/09/08 10:33:58;;;;;;;5.70;5.20;;;27.70;55.30;;;;;;5074714;28;20486;-59
2023/09/08 10:36:25;;;;;;;7.30;5.40;;;27.70;55.00;;;;;;5074766;28;20439;-60
2023/09/08 10:38:54;;;;;;;5.70;5.10;;;27.80;54.80;;;;;;5074941;28;20470;-60
2023/09/08 10:41:32;;;;;;;6.93;4.90;;;27.90;54.60;;;;;;5074353;28;20446;-60
2023/09/08 10:44:04;;;;;;;5.67;5.17;;;28.00;54.30;;;;;;5074180;28;20438;-60
2023/09/08 10:46:33;;;;;;;6.00;5.37;;;28.10;54.00;;;;;;5074587;28;20424;-60
2023/09/08 10:49:04;;;;;;;5.60;5.10;;;28.10;53.70;;;;;;5074056;28;20463;-60
2023/09/08 10:51:31;;;;;;;6.53;4.97;;;28.20;53.60;;;;;;5074156;28;20443;-60
2023/09/08 10:53:58;;;;;;;5.73;5.10;;;28.30;53.20;;;;;;5073362;28;20501;-60
2023/09/08 10:56:29;;;;;;;7.90;5.03;;;28.30;52.70;;;;;;5073645;28;20439;-60
2023/09/08 10:58:56;;;;;;;7.00;5.23;;;28.30;52.50;;;;;;5073700;28;20466;-61
2023/09/08 11:01:27;;;;;;;5.50;4.80;;;28.30;52.30;;;;;;5073766;28;20451;-60
2023/09/08 11:03:54;;;;;;;5.80;5.10;;;28.40;52.20;;;;;;5073563;28;20515;-60
2023/09/08 11:06:23;;;;;;;5.03;4.50;;;28.50;52.00;;;;;;5073483;28;20445;-60
2023/09/08 11:08:52;;;;;;;5.40;4.87;;;28.60;51.80;;;;;;5073762;28;20554;-60
2023/09/08 11:11:19;;;;;;;8.13;5.27;;;28.60;51.50;;;;;;5073560;28;20816;-60
2023/09/08 11:13:46;;;;;;;5.03;4.63;;;28.60;51.30;;;;;;5073413;28;20482;-61
2023/09/08 11:16:14;;;;;;;5.70;4.60;;;28.70;51.10;;;;;;5073850;28;20442;-60
2023/09/08 11:18:43;;;;;;;6.97;4.80;;;28.70;50.90;;;;;;5074233;28;20987;-60
2023/09/08 11:21:11;;;;;;;5.90;5.07;;;28.60;50.70;;;;;;5073102;28;20826;-62
2023/09/08 11:23:38;;;;;;;6.37;5.33;;;28.70;50.70;;;;;;5073571;28;20439;-60
2023/09/08 11:26:06;;;;;;;5.20;4.80;;;28.70;50.60;;;;;;5073321;28;20458;-62
2023/09/08 11:28:33;;;;;;;5.90;5.30;;;28.80;50.50;;;;;;5073244;28;20469;-61
2023/09/08 11:31:00;;;;;;;5.40;4.40;;;28.80;50.30;;;;;;5072988;28;20446;-61
2023/09/08 11:33:26;;;;;;;5.87;4.20;;;28.80;50.10;;;;;;5072805;28;20486;-61
2023/09/08 11:35:55;;;;;;;6.30;3.87;;;28.90;49.90;;;;;;5073061;28;20443;-60
2023/09/08 11:38:26;;;;;;;5.43;4.57;;;29.00;49.60;;;;;;5072602;28;20983;-60
2023/09/08 11:40:54;;;;;;;6.23;4.07;;;29.10;49.30;;;;;;5073070;28;20485;-61
2023/09/08 11:43:21;;;;;;;5.80;5.20;;;29.10;49.20;;;;;;5072912;28;20789;-61
2023/09/08 11:45:48;;;;;;;7.93;4.97;;;29.10;49.10;;;;;;5072880;28;20447;-60
2023/09/08 11:48:15;;;;;;;5.60;4.90;;;29.10;49.20;;;;;;5072742;28;20952;-60
2023/09/08 11:50:43;;;;;;;5.47;4.97;;;29.20;49.40;;;;;;5073001;28;20439;-61
2023/09/08 11:53:11;;;;;;;7.37;4.70;;;29.30;49.20;;;;;;5073082;28;20482;-61
2023/09/08 11:55:38;;;;;;;5.87;4.30;;;29.30;49.10;;;;;;5073220;28;20446;-61
2023/09/08 11:58:06;;;;;;;5.43;4.63;;;29.40;48.80;;;;;;5072596;28;20469;-61
2023/09/08 12:00:33;;;;;;;4.17;3.87;;;29.60;48.50;;;;;;5073629;28;20446;-61
2023/09/08 12:03:11;;;;;;;4.30;3.50;;;29.60;47.60;;;;;;5074202;28;20465;-60
2023/09/08 12:05:38;;;;;;;3.80;3.20;;;29.60;46.50;;;;;;5073379;28;20445;-61
2023/09/08 12:08:06;;;;;;;4.20;3.80;;;29.70;45.80;;;;;;5073561;28;20462;-61
2023/09/08 12:10:40;;;;;;;4.70;4.20;;;29.80;45.10;;;;;;5074996;28;20955;-61
2023/09/08 12:13:08;;;;;;;7.67;4.13;;;29.80;44.40;;;;;;5073750;28;20474;-61
2023/09/08 12:15:36;;;;;;;7.87;3.90;;;29.90;43.90;;;;;;5074397;28;20958;-60
2023/09/08 12:18:04;;;;;;;4.13;3.73;;;30.00;43.30;;;;;;5075745;28;20828;-61
2023/09/08 12:20:31;;;;;;;4.30;3.70;;;30.00;43.10;;;;;;5074982;28;20920;-60
2023/09/08 12:23:01;;;;;;;5.70;3.90;;;30.00;42.70;;;;;;5075536;28;20450;-61
2023/09/08 12:25:31;;;;;;;4.53;3.73;;;30.00;42.30;;;;;;5073068;28;20924;-61
2023/09/08 12:27:59;;;;;;;5.30;3.93;;;30.00;42.30;;;;;;5072495;28;20887;-61
2023/09/08 12:30:29;;;;;;;3.90;3.50;;;30.10;42.50;;;;;;5072465;28;20435;-60
2023/09/08 12:32:57;;;;;;;5.83;3.90;;;30.10;42.30;;;;;;5074768;28;20482;-60
2023/09/08 12:35:25;;;;;;;3.50;3.20;;;30.10;42.30;;;;;;5076490;28;20450;-60
2023/09/08 12:38:00;;;;;;;4.13;3.40;;;30.20;42.30;;;;;;5076436;28;20524;-61
2023/09/08 12:40:27;;;;;;;4.03;3.63;;;30.20;41.80;;;;;;5076354;28;20488;-61
2023/09/08 12:42:53;;;;;;;3.60;3.20;;;30.20;41.70;;;;;;5076527;28;20439;-60
2023/09/08 12:45:23;;;;;;;4.47;3.70;;;30.30;41.60;;;;;;5076262;28;20439;-59
2023/09/08 12:47:50;;;;;;;3.83;3.30;;;30.30;41.20;;;;;;5076286;28;20451;-60